KFRG/FRG METAR and TAF weather

Enter ICAO airport designator
Station Type Date Time Source
KFRG METAR 2024/02/26 16:53 UTC NOAA

KFRG 261653Z 21012KT 10SM OVC085 06/01 A3004 RMK AO1 SLP174 T00610011


Station Type Date Time Source
KFRG Decoded METAR 2024/02/26 16:53 UTC NOAA

FARMINGDALE REPUBLIC AIRPORT , NY, United States (KFRG) 40-44N 073-25W 21M
Feb 26, 2024 - 11:53 AM EST / 2024.02.26 1653 UTC
Wind: from the SSW (210 degrees) at 14 MPH (12 KT):0
Visibility: 10 mile(s):0
Sky conditions: overcast
Temperature: 43.0 F (6.1 C)
Dew Point: 34.0 F (1.1 C)
Relative Humidity: 70%
Pressure (altimeter): 30.04 in. Hg (1017 hPa)
ob: KFRG 261653Z 21012KT 10SM OVC085 06/01 A3004 RMK AO1 SLP174 T00610011
cycle: 17

Station Type Date Time Source
KFRG TAF UTC NOAA

Error!

Example: see airport list